createdAt,value
2022-12-27T00:00:44.618Z,4.92
2022-12-27T00:03:12.444Z,4.89
2022-12-27T00:05:44.054Z,4.85
2022-12-27T00:08:11.832Z,4.83
2022-12-27T00:10:41.409Z,4.84
2022-12-27T00:13:09.276Z,4.87
2022-12-27T00:15:37.588Z,4.92
2022-12-27T00:18:05.556Z,4.94
2022-12-27T00:20:33.347Z,4.94
2022-12-27T00:23:02.119Z,4.95
2022-12-27T00:25:29.896Z,4.95
2022-12-27T00:27:59.223Z,4.93
2022-12-27T00:30:27.043Z,4.94
2022-12-27T00:32:54.836Z,4.92
2022-12-27T00:35:22.648Z,4.89
2022-12-27T00:37:50.456Z,4.89
2022-12-27T00:40:18.398Z,4.88
2022-12-27T00:42:46.215Z,4.86
2022-12-27T00:45:15.836Z,4.84
2022-12-27T00:47:43.750Z,4.81
2022-12-27T00:50:12.697Z,4.82
2022-12-27T00:52:40.512Z,4.81
2022-12-27T00:55:09.172Z,4.80
2022-12-27T00:57:36.903Z,4.80
2022-12-27T01:00:10.149Z,4.81
2022-12-27T01:02:39.968Z,4.76
2022-12-27T01:05:08.591Z,4.80
2022-12-27T01:07:36.427Z,4.76
2022-12-27T01:10:04.653Z,4.75
2022-12-27T01:12:32.457Z,4.75
2022-12-27T01:15:00.248Z,4.77
2022-12-27T01:17:29.992Z,4.77
2022-12-27T01:19:59.180Z,4.79
2022-12-27T01:22:27.253Z,4.74
2022-12-27T01:24:55.074Z,4.73
2022-12-27T01:27:22.917Z,4.72
2022-12-27T01:29:50.740Z,4.73
2022-12-27T01:32:18.497Z,4.70
2022-12-27T01:34:46.404Z,4.72
2022-12-27T01:37:15.599Z,4.72
2022-12-27T01:39:43.365Z,4.72
2022-12-27T01:42:34.927Z,4.70
2022-12-27T01:45:04.040Z,4.70
2022-12-27T01:47:44.947Z,4.73
2022-12-27T01:50:21.590Z,4.76
2022-12-27T01:52:57.910Z,4.80
2022-12-27T01:55:31.513Z,4.84
2022-12-27T01:58:04.607Z,4.81
2022-12-27T02:00:32.380Z,4.83
2022-12-27T02:03:02.307Z,4.85
2022-12-27T02:05:30.954Z,4.87
2022-12-27T02:08:20.701Z,4.84
2022-12-27T02:10:50.298Z,4.88
2022-12-27T02:13:18.359Z,4.85
2022-12-27T02:15:46.210Z,4.82
2022-12-27T02:18:14.539Z,4.81
2022-12-27T02:21:12.158Z,4.80
2022-12-27T02:24:06.939Z,4.76
2022-12-27T02:26:59.666Z,4.79
2022-12-27T02:29:57.638Z,4.79
2022-12-27T02:32:31.844Z,4.81
2022-12-27T02:35:08.012Z,4.77
2022-12-27T02:37:40.865Z,4.68
2022-12-27T02:40:29.614Z,4.65
2022-12-27T02:43:16.194Z,4.64
2022-12-27T02:46:09.068Z,4.61
2022-12-27T02:48:54.410Z,4.58
2022-12-27T02:51:54.986Z,4.60
2022-12-27T02:54:50.543Z,4.64
2022-12-27T02:57:27.276Z,4.64
2022-12-27T03:00:23.662Z,4.65
2022-12-27T03:03:23.665Z,4.70
2022-12-27T03:06:42.246Z,4.69
2022-12-27T03:09:57.124Z,4.61
2022-12-27T03:13:00.315Z,4.61
2022-12-27T03:15:56.622Z,4.57
2022-12-27T03:18:36.994Z,4.55
2022-12-27T03:21:25.146Z,4.55
2022-12-27T03:24:13.745Z,4.55
2022-12-27T03:26:46.428Z,4.54
2022-12-27T03:29:33.908Z,4.53
2022-12-27T03:32:22.857Z,4.52
2022-12-27T03:34:56.607Z,4.50
2022-12-27T03:37:45.788Z,4.49
2022-12-27T03:40:21.675Z,4.48
2022-12-27T03:43:13.720Z,4.46
2022-12-27T03:46:12.285Z,4.43
2022-12-27T03:49:00.896Z,4.39
2022-12-27T03:51:36.685Z,4.42
2022-12-27T03:54:10.073Z,4.43
2022-12-27T03:56:39.697Z,4.43
2022-12-27T03:59:08.755Z,4.49
2022-12-27T04:01:36.662Z,4.43
2022-12-27T04:04:04.828Z,4.43
2022-12-27T04:06:34.006Z,4.44
2022-12-27T04:09:19.052Z,4.45
2022-12-27T04:12:04.258Z,4.42
2022-12-27T04:14:49.679Z,4.41
2022-12-27T04:17:35.050Z,4.39
2022-12-27T04:20:20.577Z,4.39
2022-12-27T04:23:07.320Z,4.40
2022-12-27T04:25:52.376Z,4.43
2022-12-27T04:28:37.937Z,4.45
2022-12-27T04:31:23.326Z,4.43
2022-12-27T04:34:08.534Z,4.40
2022-12-27T04:36:36.281Z,4.41
2022-12-27T04:39:05.901Z,4.41
2022-12-27T04:41:51.250Z,4.37
2022-12-27T04:44:48.066Z,4.38
2022-12-27T04:47:35.660Z,4.41
2022-12-27T04:50:21.932Z,4.41
2022-12-27T04:53:07.609Z,4.45
2022-12-27T04:55:37.130Z,4.50
2022-12-27T04:58:05.094Z,4.54
2022-12-27T05:00:52.038Z,4.54
2022-12-27T05:03:23.028Z,4.52
2022-12-27T05:05:53.285Z,4.51
2022-12-27T05:08:39.544Z,4.50
2022-12-27T05:11:27.094Z,4.47
2022-12-27T05:14:00.655Z,4.47
2022-12-27T05:16:29.679Z,4.42
2022-12-27T05:18:57.704Z,4.42
2022-12-27T05:21:26.134Z,4.41
2022-12-27T05:24:11.538Z,4.39
2022-12-27T05:26:40.777Z,4.36
2022-12-27T05:29:09.228Z,4.43
2022-12-27T05:31:37.060Z,4.41
2022-12-27T05:34:06.188Z,4.37
2022-12-27T05:36:34.288Z,4.36
2022-12-27T05:39:02.253Z,4.40
2022-12-27T05:41:30.086Z,4.36
2022-12-27T05:44:06.531Z,4.37
2022-12-27T05:46:34.993Z,4.43
2022-12-27T05:49:02.984Z,4.44
2022-12-27T05:51:30.855Z,4.59
2022-12-27T05:53:58.615Z,4.57
2022-12-27T05:56:26.727Z,4.59
2022-12-27T05:58:55.193Z,4.59
2022-12-27T06:01:24.553Z,4.60
2022-12-27T06:03:52.342Z,4.56
2022-12-27T06:06:20.169Z,4.56
2022-12-27T06:08:47.986Z,4.52
2022-12-27T06:11:17.802Z,4.54
2022-12-27T06:13:51.203Z,4.56
2022-12-27T06:16:21.141Z,4.52
2022-12-27T06:18:50.503Z,4.49
2022-12-27T06:21:21.076Z,4.48
2022-12-27T06:23:51.438Z,4.47
2022-12-27T06:26:22.250Z,4.45
2022-12-27T06:28:51.160Z,4.44
2022-12-27T06:31:19.924Z,4.41
2022-12-27T06:33:48.287Z,4.35
2022-12-27T06:36:19.825Z,4.34
2022-12-27T06:38:48.457Z,4.33
2022-12-27T06:41:18.814Z,4.31
2022-12-27T06:43:48.059Z,4.27
2022-12-27T06:46:18.753Z,4.26
2022-12-27T06:48:47.513Z,4.23
2022-12-27T06:51:18.530Z,4.26
2022-12-27T06:53:46.380Z,4.24
2022-12-27T06:56:16.975Z,4.26
2022-12-27T06:58:45.140Z,4.24
2022-12-27T07:01:16.317Z,4.21
2022-12-27T07:03:44.895Z,4.18
2022-12-27T07:06:13.303Z,4.25
2022-12-27T07:08:42.765Z,4.23
2022-12-27T07:11:12.897Z,4.18
2022-12-27T07:13:43.226Z,4.16
2022-12-27T07:16:13.046Z,4.15
2022-12-27T07:18:41.768Z,4.14
2022-12-27T07:21:12.616Z,4.12
2022-12-27T07:23:42.479Z,4.09
2022-12-27T07:26:13.488Z,4.09
2022-12-27T07:28:42.239Z,4.10
2022-12-27T07:31:11.493Z,4.11
2022-12-27T07:33:39.981Z,4.10
2022-12-27T07:36:11.368Z,4.13
2022-12-27T07:38:39.455Z,4.09
2022-12-27T07:41:09.262Z,4.11
2022-12-27T07:43:37.555Z,4.15
2022-12-27T07:46:06.311Z,4.14
2022-12-27T07:48:34.304Z,4.16
2022-12-27T07:51:02.537Z,4.20
2022-12-27T07:53:30.676Z,4.21
2022-12-27T07:55:58.724Z,4.20
2022-12-27T07:58:28.327Z,4.23
2022-12-27T08:00:56.570Z,4.23
2022-12-27T08:03:24.621Z,4.21
2022-12-27T08:05:53.654Z,4.21
2022-12-27T08:08:25.562Z,4.22
2022-12-27T08:10:53.511Z,4.21
2022-12-27T08:13:21.301Z,4.21
2022-12-27T08:15:53.163Z,4.22
2022-12-27T08:18:20.960Z,4.23
2022-12-27T08:20:48.767Z,4.22
2022-12-27T08:23:16.753Z,4.22
2022-12-27T08:25:48.760Z,4.21
2022-12-27T08:28:19.373Z,4.15
2022-12-27T08:30:48.818Z,4.18
2022-12-27T08:33:18.032Z,4.18
2022-12-27T08:35:55.025Z,4.23
2022-12-27T08:38:23.386Z,4.27
2022-12-27T08:40:51.358Z,4.30
2022-12-27T08:43:19.396Z,4.33
2022-12-27T08:45:47.360Z,4.32
2022-12-27T08:48:18.405Z,4.37
2022-12-27T08:50:46.397Z,4.39
2022-12-27T08:53:14.152Z,4.42
2022-12-27T08:55:42.240Z,4.47
2022-12-27T08:58:15.930Z,4.55
2022-12-27T09:00:44.385Z,4.59
2022-12-27T09:03:12.519Z,4.63
2022-12-27T09:05:42.478Z,4.73
2022-12-27T09:08:11.092Z,4.84
2022-12-27T09:10:39.473Z,4.96
2022-12-27T09:13:07.306Z,5.08
2022-12-27T09:15:35.323Z,5.21
2022-12-27T09:18:04.116Z,5.35
2022-12-27T09:20:32.975Z,5.54
2022-12-27T09:23:02.203Z,5.76
2022-12-27T09:25:30.056Z,5.98
2022-12-27T09:27:58.058Z,6.18
2022-12-27T09:30:25.902Z,6.48
2022-12-27T09:32:53.718Z,6.74
2022-12-27T09:35:21.586Z,7.07
2022-12-27T09:37:49.544Z,7.33
2022-12-27T09:40:22.523Z,7.56
2022-12-27T09:43:12.508Z,7.61
2022-12-27T09:45:48.185Z,7.68
2022-12-27T09:48:24.169Z,7.66
2022-12-27T09:50:59.149Z,7.72
2022-12-27T09:53:34.579Z,7.60
2022-12-27T09:56:05.759Z,7.55
2022-12-27T09:58:42.065Z,7.54
2022-12-27T10:01:35.687Z,7.44
2022-12-27T10:04:05.524Z,7.45
2022-12-27T10:07:02.438Z,7.50
2022-12-27T10:09:45.167Z,7.46
2022-12-27T10:12:32.041Z,7.43
2022-12-27T10:15:12.579Z,7.42
2022-12-27T10:17:53.430Z,7.33
2022-12-27T10:20:31.994Z,7.27
2022-12-27T10:23:06.359Z,7.35
2022-12-27T10:25:36.557Z,7.43
2022-12-27T10:28:14.903Z,7.40
2022-12-27T10:30:44.179Z,7.26
2022-12-27T10:33:20.572Z,7.33
2022-12-27T10:35:48.849Z,7.34
2022-12-27T10:38:16.717Z,7.33
2022-12-27T10:40:54.937Z,7.42
2022-12-27T10:43:28.104Z,7.45
2022-12-27T10:45:56.404Z,7.51
2022-12-27T10:48:36.404Z,7.50
2022-12-27T10:51:14.965Z,7.49
2022-12-27T10:53:59.067Z,7.46
2022-12-27T10:56:29.134Z,7.49
2022-12-27T10:59:11.224Z,7.55
2022-12-27T11:01:39.312Z,7.53
2022-12-27T11:04:19.393Z,7.49
2022-12-27T11:06:51.513Z,7.41
2022-12-27T11:09:26.804Z,7.41
2022-12-27T11:12:13.201Z,7.37
2022-12-27T11:14:55.706Z,7.37
2022-12-27T11:17:26.785Z,7.36
2022-12-27T11:19:55.391Z,7.37
2022-12-27T11:22:23.729Z,7.47
2022-12-27T11:25:01.425Z,7.45
2022-12-27T11:27:31.474Z,7.41
2022-12-27T11:30:01.435Z,7.52
2022-12-27T11:32:29.812Z,7.52
2022-12-27T11:34:58.736Z,7.54
2022-12-27T11:37:28.591Z,7.47
2022-12-27T11:40:12.069Z,7.61
2022-12-27T11:42:44.096Z,7.69
2022-12-27T11:45:21.857Z,7.74
2022-12-27T11:47:55.731Z,7.71
2022-12-27T11:50:38.836Z,7.75
2022-12-27T11:53:13.165Z,7.83
2022-12-27T11:56:04.023Z,7.73
2022-12-27T11:58:58.308Z,7.83
2022-12-27T12:01:44.141Z,7.82
2022-12-27T12:04:34.885Z,7.89
2022-12-27T12:07:12.882Z,7.97
2022-12-27T12:09:57.219Z,8.14
2022-12-27T12:12:53.136Z,8.41
2022-12-27T12:15:46.999Z,8.50
2022-12-27T12:18:32.069Z,8.49
2022-12-27T12:21:25.201Z,8.48
2022-12-27T12:24:42.129Z,8.54
2022-12-27T12:27:29.236Z,8.44
2022-12-27T12:30:16.514Z,8.39
2022-12-27T12:32:57.897Z,8.43
2022-12-27T12:35:40.386Z,8.40
2022-12-27T12:38:22.631Z,8.32
2022-12-27T12:41:10.411Z,8.18
2022-12-27T12:44:05.969Z,8.09
2022-12-27T12:46:39.523Z,8.03
2022-12-27T12:49:43.976Z,7.97
2022-12-27T12:52:35.558Z,7.91
2022-12-27T12:55:26.656Z,7.90
2022-12-27T12:58:09.475Z,7.87
2022-12-27T13:01:03.742Z,7.84
2022-12-27T13:03:58.369Z,7.74
2022-12-27T13:06:57.444Z,7.73
2022-12-27T13:09:41.407Z,7.69
2022-12-27T13:12:13.342Z,7.68
2022-12-27T13:15:08.799Z,7.65
2022-12-27T13:17:47.828Z,7.61
2022-12-27T13:20:43.241Z,7.53
2022-12-27T13:23:25.441Z,7.55
2022-12-27T13:26:02.577Z,7.51
2022-12-27T13:28:42.560Z,7.52
2022-12-27T13:31:31.859Z,7.51
2022-12-27T13:34:11.641Z,7.46
2022-12-27T13:36:52.843Z,7.48
2022-12-27T13:39:37.111Z,7.46
2022-12-27T13:42:31.079Z,7.47
2022-12-27T13:45:09.395Z,7.44
2022-12-27T13:47:59.368Z,7.38
2022-12-27T13:50:44.513Z,7.29
2022-12-27T13:53:34.899Z,7.25
2022-12-27T13:56:51.878Z,7.20
2022-12-27T13:59:37.155Z,7.16
2022-12-27T14:02:33.314Z,7.07
2022-12-27T14:05:44.837Z,7.03
2022-12-27T14:08:26.426Z,7.04
2022-12-27T14:11:00.681Z,7.03
2022-12-27T14:13:34.559Z,7.00
2022-12-27T14:16:22.897Z,6.97
2022-12-27T14:19:14.069Z,6.94
2022-12-27T14:22:01.123Z,6.92
2022-12-27T14:25:02.383Z,6.87
2022-12-27T14:27:59.419Z,6.87
2022-12-27T14:31:04.480Z,6.83
2022-12-27T14:33:55.669Z,6.75
2022-12-27T14:36:54.662Z,6.72
2022-12-27T14:39:54.114Z,6.60
2022-12-27T14:43:06.053Z,6.56
2022-12-27T14:46:08.824Z,6.53
2022-12-27T14:49:12.188Z,6.48
2022-12-27T14:52:16.599Z,6.49
2022-12-27T14:55:31.114Z,6.38
2022-12-27T14:58:22.828Z,6.35
2022-12-27T15:01:07.569Z,6.31
2022-12-27T15:03:53.143Z,6.26
2022-12-27T15:06:35.466Z,6.22
2022-12-27T15:09:18.017Z,6.18
2022-12-27T15:11:56.408Z,6.12
2022-12-27T15:14:42.644Z,6.11
2022-12-27T15:17:39.701Z,6.11
2022-12-27T15:20:28.205Z,6.13
2022-12-27T15:23:05.884Z,6.13
2022-12-27T15:25:51.194Z,6.12
2022-12-27T15:28:26.998Z,6.13
2022-12-27T15:31:01.726Z,6.12
2022-12-27T15:33:39.203Z,6.09
2022-12-27T15:36:13.612Z,6.12
2022-12-27T15:38:53.423Z,6.14
2022-12-27T15:41:34.704Z,6.06
2022-12-27T15:44:14.061Z,6.02
2022-12-27T15:47:07.848Z,6.04
2022-12-27T15:49:58.781Z,6.02
2022-12-27T15:52:45.792Z,6.01
2022-12-27T15:55:27.019Z,5.99
2022-12-27T15:58:15.257Z,5.96
2022-12-27T16:00:44.447Z,5.94
2022-12-27T16:03:35.422Z,5.90
2022-12-27T16:06:04.266Z,5.82
2022-12-27T16:08:37.856Z,5.78
2022-12-27T16:11:10.187Z,5.76
2022-12-27T16:13:43.333Z,5.71
2022-12-27T16:16:28.256Z,5.67
2022-12-27T16:19:15.190Z,5.61
2022-12-27T16:21:45.576Z,5.56
2022-12-27T16:24:17.643Z,5.55
2022-12-27T16:26:53.249Z,5.50
2022-12-27T16:29:27.488Z,5.48
2022-12-27T16:32:15.985Z,5.46
2022-12-27T16:34:46.024Z,5.42
2022-12-27T16:37:24.680Z,5.39
2022-12-27T16:40:18.755Z,5.35
2022-12-27T16:43:32.954Z,5.33
2022-12-27T16:46:20.642Z,5.27
2022-12-27T16:49:04.957Z,5.28
2022-12-27T16:51:42.803Z,5.25
2022-12-27T16:54:24.063Z,5.22
2022-12-27T16:56:51.879Z,5.19
2022-12-27T16:59:53.305Z,5.15
2022-12-27T17:02:42.099Z,5.08
2022-12-27T17:05:33.781Z,5.04
2022-12-27T17:08:26.051Z,4.97
2022-12-27T17:11:05.079Z,4.90
2022-12-27T17:13:47.764Z,4.86
2022-12-27T17:16:23.983Z,4.84
2022-12-27T17:19:00.107Z,4.77
2022-12-27T17:21:31.273Z,4.75
2022-12-27T17:24:01.265Z,4.73
2022-12-27T17:27:04.509Z,4.69
2022-12-27T17:29:52.604Z,4.67
2022-12-27T17:32:31.685Z,4.62
2022-12-27T17:35:13.406Z,4.55
2022-12-27T17:37:47.947Z,4.52
2022-12-27T17:40:33.327Z,4.47
2022-12-27T17:43:48.971Z,4.44
2022-12-27T17:46:29.807Z,4.41
2022-12-27T17:48:59.628Z,4.36
2022-12-27T17:51:30.524Z,4.32
2022-12-27T17:54:16.576Z,4.29
2022-12-27T17:57:04.503Z,4.26
2022-12-27T17:59:34.891Z,4.25
2022-12-27T18:02:08.140Z,4.24
2022-12-27T18:04:39.486Z,4.24
2022-12-27T18:07:11.057Z,4.21
2022-12-27T18:09:44.203Z,4.19
2022-12-27T18:12:18.834Z,4.15
2022-12-27T18:14:52.753Z,4.11
2022-12-27T18:17:29.004Z,4.09
2022-12-27T18:19:58.103Z,4.07
2022-12-27T18:22:28.287Z,4.07
2022-12-27T18:24:56.089Z,4.02
2022-12-27T18:27:26.305Z,3.98
2022-12-27T18:29:54.143Z,3.95
2022-12-27T18:32:23.909Z,3.94
2022-12-27T18:34:55.977Z,3.92
2022-12-27T18:37:25.939Z,3.92
2022-12-27T18:39:58.127Z,3.91
2022-12-27T18:42:31.565Z,3.85
2022-12-27T18:45:03.871Z,3.83
2022-12-27T18:47:35.818Z,3.81
2022-12-27T18:50:07.015Z,3.77
2022-12-27T18:52:39.448Z,3.75
2022-12-27T18:55:17.931Z,3.71
2022-12-27T18:57:46.327Z,3.67
2022-12-27T19:00:19.328Z,3.64
2022-12-27T19:02:47.105Z,3.63
2022-12-27T19:05:25.385Z,3.60
2022-12-27T19:07:57.568Z,3.56
2022-12-27T19:10:29.108Z,3.55
2022-12-27T19:12:58.258Z,3.55
2022-12-27T19:15:28.415Z,3.54
2022-12-27T19:18:00.866Z,3.55
2022-12-27T19:20:30.997Z,3.54
2022-12-27T19:23:01.919Z,3.54
2022-12-27T19:25:32.891Z,3.53
2022-12-27T19:28:03.204Z,3.52
2022-12-27T19:30:43.416Z,3.49
2022-12-27T19:33:22.970Z,3.46
2022-12-27T19:35:50.967Z,3.43
2022-12-27T19:38:21.635Z,3.36
2022-12-27T19:40:55.481Z,3.37
2022-12-27T19:43:29.087Z,3.36
2022-12-27T19:45:57.166Z,3.31
2022-12-27T19:48:24.970Z,3.24
2022-12-27T19:50:54.856Z,3.22
2022-12-27T19:53:28.666Z,3.23
2022-12-27T19:55:58.353Z,3.21
2022-12-27T19:58:29.463Z,3.21
2022-12-27T20:00:57.700Z,3.17
2022-12-27T20:03:26.049Z,3.09
2022-12-27T20:06:12.922Z,3.07
2022-12-27T20:08:45.832Z,3.05
2022-12-27T20:11:19.449Z,2.99
2022-12-27T20:13:47.582Z,2.98
2022-12-27T20:16:18.270Z,2.99
2022-12-27T20:18:47.146Z,3.01
2022-12-27T20:21:16.561Z,3.02
2022-12-27T20:23:44.518Z,3.02
2022-12-27T20:26:13.289Z,3.03
2022-12-27T20:28:42.665Z,3.01
2022-12-27T20:31:14.055Z,3.01
2022-12-27T20:33:42.133Z,3.02
2022-12-27T20:36:11.048Z,2.99
2022-12-27T20:38:40.035Z,3.02
2022-12-27T20:41:09.337Z,3.03
2022-12-27T20:43:37.427Z,3.02
2022-12-27T20:46:07.853Z,3.01
2022-12-27T20:48:38.611Z,3.01
2022-12-27T20:51:08.747Z,2.98
2022-12-27T20:53:36.806Z,2.96
2022-12-27T20:56:06.230Z,2.87
2022-12-27T20:58:34.712Z,2.66
2022-12-27T21:01:09.061Z,2.57
2022-12-27T21:03:37.408Z,2.48
2022-12-27T21:06:10.112Z,2.36
2022-12-27T21:08:45.510Z,2.31
2022-12-27T21:11:18.107Z,2.24
2022-12-27T21:13:46.540Z,2.13
2022-12-27T21:16:18.293Z,2.07
2022-12-27T21:18:46.448Z,2.03
2022-12-27T21:21:19.461Z,1.97
2022-12-27T21:23:48.811Z,1.94
2022-12-27T21:26:18.969Z,1.89
2022-12-27T21:28:47.361Z,1.89
2022-12-27T21:31:18.141Z,1.88
2022-12-27T21:33:46.534Z,1.85
2022-12-27T21:36:16.150Z,1.84
2022-12-27T21:38:44.550Z,1.82
2022-12-27T21:41:14.666Z,1.79
2022-12-27T21:43:44.085Z,1.80
2022-12-27T21:46:15.043Z,1.77
2022-12-27T21:48:44.854Z,1.75
2022-12-27T21:51:14.928Z,1.72
2022-12-27T21:53:42.831Z,1.68
2022-12-27T21:56:12.350Z,1.69
2022-12-27T21:58:41.434Z,1.67
2022-12-27T22:01:12.114Z,1.67
2022-12-27T22:03:42.210Z,1.62
2022-12-27T22:06:13.256Z,1.52
2022-12-27T22:08:41.968Z,1.37
2022-12-27T22:11:10.611Z,1.38
2022-12-27T22:13:38.606Z,1.40
2022-12-27T22:16:09.073Z,1.38
2022-12-27T22:18:39.920Z,1.32
2022-12-27T22:21:08.908Z,1.41
2022-12-27T22:23:40.205Z,1.33
2022-12-27T22:26:11.720Z,1.38
2022-12-27T22:28:39.695Z,1.44
2022-12-27T22:31:08.816Z,1.50
2022-12-27T22:33:37.298Z,1.54
2022-12-27T22:36:06.113Z,1.42
2022-12-27T22:38:34.910Z,1.39
2022-12-27T22:41:08.536Z,1.45
2022-12-27T22:43:36.587Z,1.46
2022-12-27T22:46:07.992Z,1.49
2022-12-27T22:48:36.319Z,1.46
2022-12-27T22:51:09.072Z,1.42
2022-12-27T22:53:37.501Z,1.42
2022-12-27T22:56:13.086Z,1.41
2022-12-27T22:58:41.027Z,1.37
2022-12-27T23:01:12.052Z,1.41
2022-12-27T23:03:40.032Z,1.45
2022-12-27T23:06:08.263Z,1.49
2022-12-27T23:08:37.342Z,1.48
2022-12-27T23:11:05.905Z,1.50
2022-12-27T23:13:35.082Z,1.58
2022-12-27T23:16:04.949Z,1.69
2022-12-27T23:18:33.341Z,1.76
2022-12-27T23:21:20.165Z,1.82
2022-12-27T23:23:49.526Z,1.88
2022-12-27T23:26:19.924Z,1.92
2022-12-27T23:28:52.395Z,1.96
2022-12-27T23:31:21.874Z,1.94
2022-12-27T23:33:50.278Z,1.94
2022-12-27T23:36:18.186Z,1.91
2022-12-27T23:38:46.249Z,1.89
2022-12-27T23:41:17.179Z,1.75
2022-12-27T23:43:54.343Z,1.64
2022-12-27T23:46:28.260Z,1.55
2022-12-27T23:48:56.657Z,1.45
2022-12-27T23:51:24.872Z,1.41
2022-12-27T23:53:53.078Z,1.37
2022-12-27T23:56:22.658Z,1.27
2022-12-27T23:58:52.847Z,1.17
